Driscoll, Texas
Current Conditions -  °F | °C
As of 5:56 AM on Thursday 23 Oct 2014 (Local Time) from KNQI Reporting Station
Clear Clear  
Wind Chill: 63°   Ceiling: Unl
Heat Index: 63°   Visibility: 10mi
Dew Point: 63°   Wind: 7mph
Humidity: 100%   Direction: 350°N
Pressure: 30.04"   Gusts: NA
Location:  27.67°N, 97.75°W
Report Text: KNQI 231056Z AUTO 35006KT 10SM CLR 17/17 A3004 RMK AO2 SLP170 T01720172
Loading
Personal Weather Stations






























Interactive Weather Map
Tropical Storm Tracking
New forecast layout! Learn more

10-Day Weather Forecast

Advertisements
Track Severe Weather on mobile